Time;durP1;ratioP1;P1;durP2;ratioP2;P2;SDS_P1;SDS_P2;PMS_P1;PMS_P2;Temp;Humidity;BMP_temperature;BMP_pressure;BME280_temperature;BME280_humidity;BME280_pressure;Samples;Min_cycle;Max_cycle;Signal;HPM_P1;HPM_P2
2021/12/25 00:00:12;;;;;;;18.53;16.53;;;;;;;2.00;78.00;92522.84;5067197;28;20258;-82
2021/12/25 00:02:38;;;;;;;20.77;18.23;;;;;;;2.20;77.38;92511.13;5069082;28;20220;-82
2021/12/25 00:05:05;;;;;;;20.87;16.17;;;;;;;2.28;76.73;92512.53;5067414;28;20190;-82
2021/12/25 00:07:31;;;;;;;20.57;17.23;;;;;;;2.33;76.35;92505.69;5064855;28;20248;-81
2021/12/25 00:09:58;;;;;;;22.50;18.97;;;;;;;2.57;75.27;92490.91;5068007;28;20192;-81
2021/12/25 00:12:24;;;;;;;22.10;18.57;;;;;;;2.78;74.30;92513.41;5064363;28;20225;-82
2021/12/25 00:14:50;;;;;;;21.30;18.30;;;;;;;2.93;73.66;92500.75;5065231;28;20193;-81
2021/12/25 00:17:16;;;;;;;18.40;16.50;;;;;;;3.13;73.15;92524.25;5067165;28;20273;-82
2021/12/25 00:19:43;;;;;;;20.47;18.37;;;;;;;3.10;73.11;92514.41;5066773;28;20272;-82
2021/12/25 00:22:09;;;;;;;20.90;17.63;;;;;;;3.10;72.37;92511.84;5067029;28;20276;-82
2021/12/25 00:24:35;;;;;;;17.73;16.03;;;;;;;3.41;71.57;92511.25;5067197;28;20189;-79
2021/12/25 00:27:07;;;;;;;17.00;15.40;;;;;;;3.28;71.50;92503.88;5050121;28;20228;-82
2021/12/25 00:29:50;;;;;;;18.47;16.67;;;;;;;3.29;71.67;92536.38;5070272;28;20208;-81
2021/12/25 00:34:49;;;;;;;25.30;21.23;;;;;;;3.11;71.64;92552.09;5069900;28;20201;-82
2021/12/25 00:37:15;;;;;;;23.77;18.73;;;;;;;3.06;72.22;92559.75;5070983;28;20231;-82
2021/12/25 00:39:43;;;;;;;18.87;17.00;;;;;;;3.15;71.84;92560.91;5071652;28;20181;-82
2021/12/25 00:42:10;;;;;;;17.87;16.07;;;;;;;3.04;73.31;92570.28;5073119;28;20230;-83
2021/12/25 00:44:36;;;;;;;21.97;16.93;;;;;;;3.14;72.73;92549.81;5070884;28;20197;-82
2021/12/25 00:47:01;;;;;;;27.73;24.27;;;;;;;3.17;72.07;92569.22;5070120;28;20232;-81
2021/12/25 00:49:27;;;;;;;18.97;16.00;;;;;;;3.12;72.04;92546.69;5071175;28;20216;-82
2021/12/25 00:51:53;;;;;;;16.50;14.73;;;;;;;3.15;72.02;92540.28;5069787;28;20230;-82
2021/12/25 00:54:19;;;;;;;15.30;13.70;;;;;;;3.15;71.87;92530.75;5071129;28;20202;-80
2021/12/25 00:56:44;;;;;;;16.20;14.67;;;;;;;3.23;71.54;92543.25;5071017;28;20225;-82
2021/12/25 00:59:10;;;;;;;16.47;14.97;;;;;;;3.16;71.86;92524.56;5069989;28;20224;-82
2021/12/25 01:01:36;;;;;;;16.87;15.37;;;;;;;3.19;72.79;92546.56;5070144;28;20260;-84
2021/12/25 01:04:03;;;;;;;17.73;15.87;;;;;;;3.28;72.18;92550.28;5071109;28;20193;-82
2021/12/25 01:06:29;;;;;;;16.20;14.67;;;;;;;3.32;71.44;92535.91;5069591;28;20232;-81
2021/12/25 01:08:55;;;;;;;15.70;14.20;;;;;;;3.36;71.83;92534.41;5069877;28;20261;-81
2021/12/25 01:11:23;;;;;;;16.23;14.73;;;;;;;3.31;71.62;92534.34;5070761;28;20225;-82
2021/12/25 01:13:55;;;;;;;16.37;14.97;;;;;;;3.39;71.82;92521.03;5069839;28;20201;-81
2021/12/25 01:32:14;;;;;;;17.10;15.70;;;;;;;2.82;73.78;92515.28;5070354;28;20233;-83
2021/12/25 01:49:56;;;;;;;17.37;15.67;;;;;;;2.19;76.78;92534.53;5070456;28;20204;-83
2021/12/25 01:52:26;;;;;;;19.00;16.83;;;;;;;2.33;76.63;92541.75;5069153;28;20221;-82
2021/12/25 01:55:01;;;;;;;16.13;14.83;;;;;;;2.44;76.30;92527.25;5070552;28;20192;-79
2021/12/25 01:57:28;;;;;;;16.67;15.07;;;;;;;2.42;75.76;92511.25;5068789;28;20216;-81
2021/12/25 01:59:55;;;;;;;19.63;17.73;;;;;;;2.33;76.38;92515.22;5070719;28;20215;-81
2021/12/25 02:02:22;;;;;;;19.90;17.90;;;;;;;2.41;75.33;92501.97;5068836;28;20233;-81
2021/12/25 02:04:47;;;;;;;18.83;17.07;;;;;;;2.57;75.10;92516.69;5050081;28;20186;-82
2021/12/25 02:07:13;;;;;;;15.70;14.10;;;;;;;2.15;75.96;92505.13;5068890;28;20236;-81
2021/12/25 02:09:39;;;;;;;12.97;11.97;;;;;;;2.11;77.59;92509.94;5069982;28;20249;-81
2021/12/25 02:12:05;;;;;;;15.47;14.07;;;;;;;2.38;76.19;92497.28;5067278;28;20230;-81
2021/12/25 02:14:31;;;;;;;13.37;12.47;;;;;;;2.54;76.50;92517.13;5070312;28;20200;-81
2021/12/25 02:17:12;;;;;;;19.53;17.50;;;;;;;2.73;75.20;92472.88;5067593;28;20240;-81
2021/12/25 02:19:46;;;;;;;15.47;14.03;;;;;;;3.06;74.41;92508.19;5051994;28;20210;-82
2021/12/25 02:22:13;;;;;;;16.60;15.10;;;;;;;2.64;74.08;92450.31;5068380;28;20300;-81
2021/12/25 02:24:38;;;;;;;15.90;14.40;;;;;;;3.02;74.72;92482.06;5067715;28;20186;-82
2021/12/25 02:27:05;;;;;;;15.53;14.13;;;;;;;2.99;74.54;92484.34;5069676;28;20251;-78
2021/12/25 02:29:32;;;;;;;14.50;13.27;;;;;;;2.74;73.99;92460.78;5051798;28;20192;-81
2021/12/25 02:31:59;;;;;;;14.57;13.07;;;;;;;3.08;73.39;92462.31;5069084;28;20225;-82
2021/12/25 02:34:24;;;;;;;14.57;13.43;;;;;;;3.23;73.77;92502.00;5069845;28;20204;-82
2021/12/25 02:36:50;;;;;;;15.00;13.67;;;;;;;2.90;75.71;92490.91;5066963;28;20221;-82
2021/12/25 02:39:16;;;;;;;14.60;13.03;;;;;;;3.04;74.94;92492.16;5068908;28;20208;-81
2021/12/25 02:41:42;;;;;;;16.80;15.30;;;;;;;2.97;74.59;92487.16;5069290;28;20247;-82
2021/12/25 02:44:08;;;;;;;16.70;14.47;;;;;;;3.06;75.14;92508.97;5066908;28;20246;-83
2021/12/25 02:46:34;;;;;;;14.93;13.63;;;;;;;3.10;73.88;92480.88;5068174;28;20267;-81
2021/12/25 02:49:00;;;;;;;14.43;13.13;;;;;;;2.93;75.29;92503.31;5068555;28;20249;-82
2021/12/25 02:51:26;;;;;;;13.87;12.67;;;;;;;2.90;75.36;92509.75;5047308;28;20231;-82
2021/12/25 02:53:52;;;;;;;14.33;13.20;;;;;;;2.87;75.35;92497.31;5069216;28;20185;-82
2021/12/25 02:56:17;;;;;;;14.53;13.33;;;;;;;3.01;75.21;92485.69;5066160;28;20260;-81
2021/12/25 02:58:43;;;;;;;14.13;12.90;;;;;;;3.18;74.43;92498.53;5068687;28;20189;-82
2021/12/25 03:01:13;;;;;;;15.90;14.47;;;;;;;3.10;74.98;92501.50;5069251;28;20224;-82
2021/12/25 03:03:39;;;;;;;13.33;12.30;;;;;;;3.21;74.71;92487.75;5066242;28;20196;-81
2021/12/25 03:06:06;;;;;;;14.27;13.17;;;;;;;3.23;74.73;92496.84;5068197;28;20221;-82
2021/12/25 03:08:32;;;;;;;15.23;13.87;;;;;;;3.27;73.86;92481.63;5065790;28;20185;-82
2021/12/25 03:10:59;;;;;;;41.70;26.03;;;;;;;3.23;74.33;92481.34;5066800;28;20228;-82
2021/12/25 03:13:42;;;;;;;27.67;21.30;;;;;;;3.41;73.65;92502.75;5048922;28;20197;-81
2021/12/25 03:16:08;;;;;;;29.23;22.80;;;;;;;3.40;73.86;92490.84;5066413;28;20259;-82
2021/12/25 03:18:41;;;;;;;22.17;19.53;;;;;;;3.25;74.40;92499.19;5068638;28;20194;-81
2021/12/25 03:21:07;;;;;;;22.07;19.20;;;;;;;3.17;74.75;92484.09;5067445;28;20229;-82
2021/12/25 03:23:34;;;;;;;35.53;24.17;;;;;;;3.44;74.89;92497.09;5068096;28;20197;-82
2021/12/25 03:26:01;;;;;;;24.70;20.20;;;;;;;3.83;73.27;92475.41;5067482;28;21210;-81
2021/12/25 03:28:30;;;;;;;19.57;17.50;;;;;;;3.52;74.33;92483.81;5061123;28;20180;-82
2021/12/25 03:31:04;;;;;;;22.67;15.73;;;;;;;3.40;73.99;92468.41;5048355;28;20251;-82
2021/12/25 03:33:29;;;;;;;20.63;17.53;;;;;;;3.60;73.72;92502.22;5067543;28;20291;-82
2021/12/25 03:35:55;;;;;;;14.20;13.03;;;;;;;4.02;71.78;92511.00;5068117;28;20229;-81
2021/12/25 03:38:21;;;;;;;17.87;16.30;;;;;;;3.75;72.64;92494.66;5066773;28;20183;-82
2021/12/25 03:40:49;;;;;;;15.83;14.33;;;;;;;3.63;73.10;92493.25;5067798;28;20235;-82
2021/12/25 03:43:15;;;;;;;15.00;13.90;;;;;;;3.55;73.38;92499.56;5050441;28;20209;-81
2021/12/25 03:45:41;;;;;;;16.17;14.93;;;;;;;3.70;72.68;92517.06;5065904;28;20248;-81
2021/12/25 03:48:27;;;;;;;15.60;14.17;;;;;;;3.58;72.99;92518.97;5069801;28;20200;-81
2021/12/25 03:59:02;;;;;;;13.67;12.33;;;;;;;3.66;73.23;92466.94;5068721;28;20200;-82
2021/12/25 04:04:18;;;;;;;16.03;14.73;;;;;;;4.18;71.14;92499.81;5069201;28;20211;-85
2021/12/25 04:06:52;;;;;;;14.90;13.60;;;;;;;4.33;70.75;92488.84;5069240;28;20228;-82
2021/12/25 04:09:26;;;;;;;13.63;12.63;;;;;;;4.10;71.12;92487.34;5071461;28;20190;-82
2021/12/25 04:11:52;;;;;;;15.33;14.07;;;;;;;4.17;71.50;92511.16;5071976;28;20259;-83
2021/12/25 04:14:18;;;;;;;15.23;14.13;;;;;;;4.29;70.10;92516.22;5072765;28;20201;-80
2021/12/25 04:16:43;;;;;;;13.60;12.43;;;;;;;4.24;70.15;92518.72;5072392;28;20213;-80
2021/12/25 04:19:09;;;;;;;16.27;14.63;;;;;;;3.98;71.49;92493.66;5072301;28;20212;-81
2021/12/25 04:21:36;;;;;;;15.77;14.17;;;;;;;3.98;71.27;92502.19;5069306;28;20244;-79
2021/12/25 04:24:02;;;;;;;13.50;12.10;;;;;;;3.69;72.35;92490.47;5072645;28;20249;-78
2021/12/25 04:26:28;;;;;;;13.50;12.40;;;;;;;4.11;71.84;92516.53;5070636;28;20225;-78
2021/12/25 04:31:34;;;;;;;21.93;17.23;;;;;;;3.88;71.46;92476.22;5070965;28;20705;-78
2021/12/25 05:01:43;;;;;;;15.23;13.93;;;;;;;4.18;70.90;92499.03;5071737;28;20200;-78
2021/12/25 05:04:16;;;;;;;14.47;13.17;;;;;;;4.40;69.15;92534.19;5070165;28;20200;-79
2021/12/25 05:06:42;;;;;;;13.63;12.63;;;;;;;4.16;70.51;92558.69;5069359;28;20236;-83
2021/12/25 05:09:07;;;;;;;15.43;13.77;;;;;;;4.35;69.25;92549.63;5069078;28;20318;-79
2021/12/25 05:11:33;;;;;;;15.63;14.13;;;;;;;4.07;69.46;92533.53;5067734;28;20221;-78
2021/12/25 05:13:58;;;;;;;17.27;15.33;;;;;;;3.85;71.06;92561.13;5070091;28;20201;-79
2021/12/25 05:16:25;;;;;;;17.10;15.50;;;;;;;3.76;71.26;92527.22;5069497;28;20229;-78
2021/12/25 05:18:51;;;;;;;15.37;14.03;;;;;;;3.84;71.92;92562.94;5069020;28;20212;-79
2021/12/25 05:21:18;;;;;;;14.07;12.87;;;;;;;3.63;71.83;92522.38;5070701;28;20300;-79
2021/12/25 05:23:44;;;;;;;16.07;14.60;;;;;;;3.74;72.11;92552.47;5070233;28;20209;-80
2021/12/25 05:26:10;;;;;;;16.70;15.30;;;;;;;3.47;72.26;92506.94;5069116;28;20227;-80
2021/12/25 05:28:44;;;;;;;16.10;14.77;;;;;;;4.09;71.04;92557.31;5068897;28;20254;-80
2021/12/25 05:31:13;;;;;;;15.23;13.73;;;;;;;3.85;72.20;92567.09;5070041;28;20227;-80
2021/12/25 05:33:39;;;;;;;14.77;13.73;;;;;;;4.35;70.45;92562.53;5069768;28;20193;-79
2021/12/25 05:36:05;;;;;;;16.87;15.17;;;;;;;4.25;70.50;92567.56;5068363;28;20244;-79
2021/12/25 05:38:33;;;;;;;15.13;13.80;;;;;;;4.18;70.45;92540.38;5052666;28;20208;-80
2021/12/25 05:40:59;;;;;;;15.03;13.63;;;;;;;4.15;70.86;92544.22;5066766;28;20248;-79
2021/12/25 05:43:24;;;;;;;16.63;15.10;;;;;;;4.22;70.21;92542.22;5070517;28;20213;-79
2021/12/25 05:45:50;;;;;;;14.53;13.10;;;;;;;4.39;70.19;92540.34;5069315;28;20233;-79
2021/12/25 05:48:15;;;;;;;16.67;15.03;;;;;;;4.49;69.75;92561.13;5069595;28;20196;-79
2021/12/25 05:50:41;;;;;;;16.23;14.83;;;;;;;4.71;69.02;92548.97;5051712;28;20233;-79
2021/12/25 05:53:07;;;;;;;16.97;15.27;;;;;;;4.62;68.86;92562.56;5069706;28;20224;-80
2021/12/25 05:55:32;;;;;;;15.80;14.40;;;;;;;4.21;70.46;92560.56;5071145;28;20225;-79
2021/12/25 05:58:00;;;;;;;15.57;14.07;;;;;;;4.09;70.57;92567.66;5069128;28;20201;-79
2021/12/25 06:00:26;;;;;;;14.87;13.57;;;;;;;4.47;70.49;92594.19;5053354;28;20628;-79
2021/12/25 06:02:52;;;;;;;16.50;13.97;;;;;;;4.50;69.70;92585.16;5069170;28;20227;-79
2021/12/25 06:05:18;;;;;;;16.37;14.77;;;;;;;4.09;70.28;92544.41;5069526;28;20265;-79
2021/12/25 06:07:44;;;;;;;15.80;14.30;;;;;;;4.27;70.52;92603.50;5052953;28;20249;-74
2021/12/25 06:10:11;;;;;;;16.17;14.77;;;;;;;4.35;70.49;92595.34;5066057;28;20223;-75
2021/12/25 06:12:38;;;;;;;17.73;16.00;;;;;;;4.31;70.51;92576.94;5068905;28;20181;-78
2021/12/25 06:15:18;;;;;;;16.50;14.90;;;;;;;4.35;70.85;92556.59;5068709;28;20231;-77
2021/12/25 06:17:44;;;;;;;19.23;17.23;;;;;;;4.71;69.34;92592.13;5049241;28;20214;-78
2021/12/25 06:20:10;;;;;;;18.47;16.73;;;;;;;4.46;70.07;92589.28;5050204;28;20193;-77
2021/12/25 06:22:36;;;;;;;16.60;15.03;;;;;;;4.62;69.55;92594.34;5067673;28;20233;-77
2021/12/25 06:25:02;;;;;;;17.00;15.47;;;;;;;4.67;69.27;92599.59;5069644;28;20219;-83
2021/12/25 06:27:28;;;;;;;16.60;14.93;;;;;;;4.63;69.74;92601.09;5066775;28;20225;-79
2021/12/25 06:29:53;;;;;;;16.70;15.20;;;;;;;4.73;69.49;92580.50;5071563;28;20201;-83
2021/12/25 06:32:19;;;;;;;17.90;16.10;;;;;;;4.78;69.40;92584.94;5047080;28;20251;-80
2021/12/25 06:34:45;;;;;;;17.37;15.17;;;;;;;4.45;70.17;92541.19;5067120;28;20185;-80
2021/12/25 06:37:11;;;;;;;17.20;15.70;;;;;;;4.83;69.26;92551.38;5068935;28;20217;-80
2021/12/25 06:39:39;;;;;;;18.00;16.37;;;;;;;4.93;68.88;92570.34;5067696;28;20190;-78
2021/12/25 06:42:06;;;;;;;17.93;16.13;;;;;;;4.91;68.76;92590.53;5068881;28;20236;-79
2021/12/25 06:44:31;;;;;;;16.73;15.20;;;;;;;4.81;68.62;92598.19;5069354;28;20197;-80
2021/12/25 06:46:57;;;;;;;15.13;13.80;;;;;;;5.07;67.91;92591.44;5068226;28;20240;-78
2021/12/25 06:49:23;;;;;;;16.03;14.73;;;;;;;5.06;67.94;92594.28;5068925;28;20351;-88
2021/12/25 06:51:50;;;;;;;12.83;12.03;;;;;;;5.07;67.98;92594.03;5065115;28;20237;-87
2021/12/25 06:54:17;;;;;;;14.03;12.97;;;;;;;4.80;68.61;92586.28;5067450;28;20217;-87
2021/12/25 06:56:44;;;;;;;14.53;13.33;;;;;;;4.87;68.41;92596.44;5064723;28;20240;-86
2021/12/25 06:59:10;;;;;;;14.87;13.77;;;;;;;4.90;67.83;92591.53;5068907;28;20212;-88
2021/12/25 07:01:36;;;;;;;15.17;13.93;;;;;;;4.81;68.41;92600.75;5068133;28;20312;-81
2021/12/25 07:04:03;;;;;;;14.70;13.60;;;;;;;4.87;68.78;92622.31;5066127;28;20209;-80
2021/12/25 07:06:29;;;;;;;14.60;13.33;;;;;;;4.94;68.28;92612.53;5068736;28;20240;-79
2021/12/25 07:08:54;;;;;;;15.27;13.97;;;;;;;4.83;69.03;92627.16;5066074;28;20208;-85
2021/12/25 07:11:20;;;;;;;16.80;15.20;;;;;;;4.87;68.70;92636.00;5068590;28;20296;-81
2021/12/25 07:13:46;;;;;;;14.97;13.83;;;;;;;5.02;68.45;92634.59;5068651;28;20189;-87
2021/12/25 07:16:12;;;;;;;15.07;13.57;;;;;;;5.04;68.48;92638.50;5067768;28;20225;-87
2021/12/25 07:18:38;;;;;;;16.23;14.87;;;;;;;5.11;68.32;92633.13;5052071;28;20185;-80
2021/12/25 07:21:05;;;;;;;17.17;15.70;;;;;;;5.17;67.53;92619.22;5065010;28;20231;-86
2021/12/25 07:23:30;;;;;;;18.03;15.23;;;;;;;5.23;68.92;92607.88;5068263;28;20232;-85
2021/12/25 07:25:56;;;;;;;18.97;15.27;;;;;;;5.37;67.88;92629.75;5067330;28;20233;-81
2021/12/25 07:28:22;;;;;;;17.50;15.67;;;;;;;5.50;66.73;92601.63;5066339;28;20189;-79
2021/12/25 07:30:50;;;;;;;20.43;15.90;;;;;;;5.80;65.97;92616.63;5068069;28;20251;-84
2021/12/25 07:33:16;;;;;;;18.67;16.53;;;;;;;6.02;65.02;92627.66;5065592;28;20194;-80
2021/12/25 07:35:41;;;;;;;18.93;16.93;;;;;;;5.96;64.90;92631.25;5067505;28;20288;-83
2021/12/25 07:38:07;;;;;;;21.00;16.43;;;;;;;6.12;64.73;92631.09;5069489;28;20192;-81
2021/12/25 07:40:32;;;;;;;19.87;17.77;;;;;;;6.12;64.67;92645.84;5070117;28;20233;-82
2021/12/25 07:42:58;;;;;;;16.93;15.23;;;;;;;6.18;63.92;92611.16;5073253;28;20236;-80
2021/12/25 07:45:23;;;;;;;22.50;17.57;;;;;;;6.17;62.95;92601.84;5071172;28;20220;-82
2021/12/25 07:47:57;;;;;;;17.13;15.53;;;;;;;5.95;64.22;92614.13;5073159;28;20265;-86
2021/12/25 07:50:23;;;;;;;14.87;13.47;;;;;;;6.19;64.23;92647.22;5053486;28;20204;-86
2021/12/25 07:52:49;;;;;;;15.03;13.53;;;;;;;6.26;63.90;92655.53;5071150;28;20200;-87
2021/12/25 07:55:15;;;;;;;15.23;13.97;;;;;;;5.94;64.38;92641.09;5071598;28;20253;-86
2021/12/25 07:57:40;;;;;;;13.83;12.87;;;;;;;6.16;64.12;92641.75;5054341;28;20212;-87
2021/12/25 08:00:09;;;;;;;19.43;17.50;;;;;;;5.72;65.70;92640.38;5072831;28;20213;-86
2021/12/25 08:02:34;;;;;;;16.80;15.30;;;;;;;5.80;65.49;92634.75;5069081;28;20248;-86
2021/12/25 08:04:59;;;;;;;16.53;14.80;;;;;;;5.33;65.73;92582.06;5073185;28;20216;-85
2021/12/25 08:07:25;;;;;;;33.23;25.57;;;;;;;5.19;67.29;92623.13;5069642;28;20228;-86
2021/12/25 08:09:51;;;;;;;17.13;15.63;;;;;;;5.59;65.91;92613.09;5052861;28;20293;-82
2021/12/25 08:12:17;;;;;;;17.17;15.57;;;;;;;5.66;65.85;92659.50;5070691;28;20259;-87
2021/12/25 08:14:43;;;;;;;34.47;26.47;;;;;;;5.19;67.52;92617.94;5069899;28;20191;-86
2021/12/25 08:17:08;;;;;;;20.53;16.53;;;;;;;5.47;67.58;92640.19;5070242;28;20231;-86
2021/12/25 08:19:34;;;;;;;20.47;18.27;;;;;;;5.58;66.84;92640.03;5070813;28;20256;-80
2021/12/25 08:21:59;;;;;;;31.70;22.63;;;;;;;5.50;67.01;92644.84;5070201;28;20241;-78
2021/12/25 08:24:25;;;;;;;40.13;30.03;;;;;;;5.71;66.74;92655.13;5071901;28;20185;-80
2021/12/25 08:26:51;;;;;;;25.90;21.20;;;;;;;5.82;65.85;92650.84;5071595;28;20236;-80
2021/12/25 08:29:16;;;;;;;27.60;19.43;;;;;;;5.64;65.60;92601.97;5071768;28;20268;-79
2021/12/25 08:31:42;;;;;;;17.97;14.93;;;;;;;6.06;65.05;92650.25;5070736;28;20260;-79
2021/12/25 08:34:09;;;;;;;17.10;15.60;;;;;;;6.03;65.33;92642.97;5073870;28;20212;-77
2021/12/25 08:36:35;;;;;;;14.27;13.17;;;;;;;5.83;65.53;92642.03;5070677;28;20236;-80
2021/12/25 08:39:01;;;;;;;16.67;15.17;;;;;;;5.89;66.07;92661.78;5072237;28;20197;-81
2021/12/25 08:41:29;;;;;;;14.80;13.40;;;;;;;5.97;65.96;92638.00;5070619;28;20237;-80
2021/12/25 08:43:59;;;;;;;18.43;16.63;;;;;;;6.12;65.22;92635.50;5070157;28;20207;-78
2021/12/25 08:46:44;;;;;;;16.60;15.00;;;;;;;6.13;64.64;92639.66;5071129;28;20247;-77
2021/12/25 08:49:15;;;;;;;16.33;14.60;;;;;;;6.17;65.08;92638.13;5070336;28;20198;-80
2021/12/25 08:51:42;;;;;;;18.63;16.73;;;;;;;6.50;63.57;92617.81;5048847;28;20226;-78
2021/12/25 08:54:08;;;;;;;20.20;17.13;;;;;;;6.24;64.83;92623.13;5071021;28;20194;-78
2021/12/25 08:56:33;;;;;;;17.77;15.97;;;;;;;6.13;64.62;92630.06;5069946;28;20225;-78
2021/12/25 08:59:00;;;;;;;17.90;16.30;;;;;;;6.39;64.18;92626.59;5071157;28;20197;-76
2021/12/25 09:01:26;;;;;;;17.23;15.70;;;;;;;6.27;64.22;92617.44;5069500;28;20221;-84
2021/12/25 09:03:51;;;;;;;22.63;17.77;;;;;;;6.55;63.94;92635.22;5072417;28;20208;-83
2021/12/25 09:06:17;;;;;;;21.53;17.33;;;;;;;6.56;63.40;92616.00;5070742;28;20241;-88
2021/12/25 09:08:42;;;;;;;17.23;15.60;;;;;;;6.65;62.23;92609.31;5070700;28;20724;-81
2021/12/25 09:11:08;;;;;;;15.03;13.63;;;;;;;6.60;62.73;92617.06;5071660;28;20225;-78
2021/12/25 09:13:33;;;;;;;16.30;14.00;;;;;;;6.69;62.04;92594.00;5069480;28;20212;-83
2021/12/25 09:15:59;;;;;;;14.87;13.47;;;;;;;6.37;63.59;92605.31;5071321;28;20247;-82
2021/12/25 09:18:24;;;;;;;15.97;14.63;;;;;;;6.36;64.37;92595.19;5067992;28;20276;-83
2021/12/25 09:20:50;;;;;;;16.13;14.63;;;;;;;6.50;63.17;92570.34;5067773;28;20276;-80
2021/12/25 09:23:15;;;;;;;14.93;13.63;;;;;;;6.93;62.88;92623.66;5067884;28;20235;-84
2021/12/25 09:25:41;;;;;;;17.67;15.77;;;;;;;7.19;61.09;92587.09;5066384;28;20300;-85
2021/12/25 09:28:06;;;;;;;15.27;13.93;;;;;;;7.25;61.41;92588.69;5070275;28;20265;-83
2021/12/25 09:30:32;;;;;;;16.80;15.23;;;;;;;7.28;60.48;92572.59;5033219;28;20499;-75
2021/12/25 09:32:57;;;;;;;15.63;14.20;;;;;;;7.39;61.94;92610.50;5070341;28;20197;-75
2021/12/25 09:35:24;;;;;;;15.93;14.53;;;;;;;7.54;60.17;92586.34;5067155;28;20194;-74
2021/12/25 09:37:49;;;;;;;16.23;14.77;;;;;;;7.71;59.69;92599.84;5071142;28;20269;-74
2021/12/25 09:40:15;;;;;;;14.50;13.30;;;;;;;7.78;59.05;92598.53;5069744;28;20193;-74
2021/12/25 09:42:43;;;;;;;15.17;13.77;;;;;;;7.73;59.97;92590.00;5069125;28;20209;-76
2021/12/25 09:45:10;;;;;;;15.37;14.07;;;;;;;7.88;60.21;92603.75;5069291;28;20221;-78
2021/12/25 09:47:36;;;;;;;16.73;15.03;;;;;;;7.80;59.60;92588.69;5069196;28;20201;-76
2021/12/25 09:50:02;;;;;;;19.27;17.33;;;;;;;8.12;58.91;92586.53;5069433;28;20200;-83
2021/12/25 09:52:28;;;;;;;15.50;14.20;;;;;;;8.31;57.97;92592.00;5068382;28;20301;-75
2021/12/25 09:54:53;;;;;;;15.97;14.57;;;;;;;8.27;57.65;92585.75;5067577;28;20201;-79
2021/12/25 09:57:19;;;;;;;16.37;14.87;;;;;;;8.27;57.30;92574.56;5070128;28;20260;-78
2021/12/25 09:59:45;;;;;;;16.97;15.47;;;;;;;8.29;57.98;92578.47;5065924;28;20194;-80
2021/12/25 10:02:14;;;;;;;15.57;13.97;;;;;;;8.14;57.79;92563.66;5064410;28;20308;-86
2021/12/25 10:05:00;;;;;;;20.03;17.23;;;;;;;8.06;58.51;92564.19;5067525;28;20245;-81
2021/12/25 10:07:28;;;;;;;28.67;20.63;;;;;;;7.91;60.56;92561.63;5050059;28;20216;-80
2021/12/25 10:10:15;;;;;;;21.13;18.13;;;;;;;7.85;59.48;92554.88;5068862;28;20194;-82
2021/12/25 10:12:45;;;;;;;18.17;16.27;;;;;;;7.84;58.93;92542.91;5068615;28;20225;-79
2021/12/25 10:15:17;;;;;;;18.67;16.47;;;;;;;8.00;58.52;92556.66;5066670;28;20178;-81
2021/12/25 10:17:51;;;;;;;26.23;19.43;;;;;;;7.84;58.79;92560.34;5068664;28;20275;-81
2021/12/25 10:20:28;;;;;;;19.43;17.33;;;;;;;7.89;59.14;92581.91;5066573;28;20181;-81
2021/12/25 10:22:59;;;;;;;19.07;16.37;;;;;;;8.01;58.91;92579.81;5067111;28;20233;-82
2021/12/25 10:25:35;;;;;;;17.33;15.53;;;;;;;7.74;59.74;92553.34;5069245;28;20181;-82
2021/12/25 10:28:06;;;;;;;17.37;15.60;;;;;;;7.87;59.21;92552.03;5068145;28;20197;-81
2021/12/25 10:31:03;;;;;;;20.57;15.80;;;;;;;8.13;58.79;92556.91;5051903;28;20225;-81
2021/12/25 10:33:31;;;;;;;17.27;14.77;;;;;;;8.29;58.03;92556.88;5069212;28;20217;-82
2021/12/25 10:36:07;;;;;;;16.23;14.80;;;;;;;8.17;58.89;92551.97;5068172;28;20221;-82
2021/12/25 10:38:32;;;;;;;17.67;16.00;;;;;;;8.10;58.68;92521.03;5068702;28;20189;-81
2021/12/25 10:41:14;;;;;;;17.93;14.87;;;;;;;8.17;58.88;92544.16;5067223;28;20305;-81
2021/12/25 10:43:42;;;;;;;16.37;14.87;;;;;;;8.07;58.38;92529.38;5050992;28;20217;-81
2021/12/25 10:46:08;;;;;;;16.20;14.67;;;;;;;8.31;58.25;92547.00;5069882;28;20231;-82
2021/12/25 10:48:34;;;;;;;22.17;17.33;;;;;;;8.50;57.57;92543.53;5068152;28;20181;-82
2021/12/25 10:51:00;;;;;;;22.50;17.60;;;;;;;8.48;57.74;92550.06;5068496;28;20228;-81
2021/12/25 10:53:37;;;;;;;19.03;17.10;;;;;;;8.47;57.82;92543.31;5068614;28;20185;-81
2021/12/25 10:56:13;;;;;;;16.60;15.03;;;;;;;8.42;57.67;92510.25;5065639;28;20248;-82
2021/12/25 10:58:40;;;;;;;17.33;15.13;;;;;;;8.54;58.30;92534.16;5049307;28;20189;-82
2021/12/25 11:01:08;;;;;;;16.90;15.37;;;;;;;8.71;57.05;92533.81;5069258;28;20248;-81
2021/12/25 11:03:37;;;;;;;15.77;14.47;;;;;;;8.31;57.48;92519.19;5069410;28;20213;-82
2021/12/25 11:06:23;;;;;;;14.47;13.17;;;;;;;8.74;57.14;92522.84;5068915;28;20245;-82
2021/12/25 11:08:49;;;;;;;16.13;14.47;;;;;;;8.43;57.95;92513.66;5066126;28;20193;-81
2021/12/25 11:11:18;;;;;;;16.00;14.43;;;;;;;8.50;58.12;92532.38;5068428;28;20259;-81
2021/12/25 11:13:47;;;;;;;15.70;14.30;;;;;;;8.61;57.39;92518.22;5068659;28;20194;-81
2021/12/25 11:16:21;;;;;;;16.77;14.80;;;;;;;8.67;57.74;92525.00;5067257;28;20225;-81
2021/12/25 11:19:11;;;;;;;15.67;14.23;;;;;;;8.78;56.87;92518.69;5067824;28;20240;-81
2021/12/25 11:21:54;;;;;;;17.77;16.07;;;;;;;8.71;56.91;92521.59;5068949;28;20255;-81
2021/12/25 11:24:23;;;;;;;16.73;15.13;;;;;;;8.78;57.10;92508.28;5069026;28;20215;-82
2021/12/25 11:26:52;;;;;;;18.80;15.77;;;;;;;8.68;57.00;92471.88;5066378;28;20214;-81
2021/12/25 11:29:21;;;;;;;16.60;15.30;;;;;;;8.58;58.73;92487.56;5069020;28;20185;-82
2021/12/25 11:31:49;;;;;;;18.37;16.10;;;;;;;8.71;57.59;92479.16;5067882;28;20236;-82
2021/12/25 11:34:15;;;;;;;16.47;14.97;;;;;;;8.50;57.58;92469.94;5068298;28;20199;-81
2021/12/25 11:36:48;;;;;;;16.73;15.23;;;;;;;8.86;56.53;92471.25;5067810;28;20217;-81
2021/12/25 11:39:15;;;;;;;18.40;16.40;;;;;;;8.79;56.77;92473.38;5066066;28;20181;-81
2021/12/25 11:41:41;;;;;;;17.77;15.77;;;;;;;8.76;57.13;92464.31;5067263;28;20222;-82
2021/12/25 11:44:29;;;;;;;15.30;14.00;;;;;;;8.61;57.58;92445.38;5068832;28;20301;-82
2021/12/25 11:46:56;;;;;;;15.37;14.00;;;;;;;8.51;57.96;92461.06;5066442;28;20217;-81
2021/12/25 11:49:21;;;;;;;17.07;13.40;;;;;;;8.55;57.65;92456.88;5069342;28;20200;-82
2021/12/25 11:51:47;;;;;;;17.93;14.87;;;;;;;8.54;57.39;92447.53;5065478;28;20221;-81
2021/12/25 11:54:28;;;;;;;15.07;13.70;;;;;;;8.61;57.35;92476.59;5048559;28;20193;-82
2021/12/25 11:59:44;;;;;;;15.23;13.93;;;;;;;8.47;58.39;92480.88;5067830;28;20219;-81
2021/12/25 12:02:10;;;;;;;15.50;13.80;;;;;;;8.38;59.46;92466.84;5067529;28;20247;-81
2021/12/25 12:04:36;;;;;;;16.57;15.00;;;;;;;8.74;57.92;92460.41;5069486;28;20205;-81
2021/12/25 12:07:18;;;;;;;16.40;14.70;;;;;;;8.75;57.68;92480.94;5049426;28;20225;-81
2021/12/25 12:09:52;;;;;;;20.07;16.00;;;;;;;8.82;58.06;92483.25;5067311;28;20186;-80
2021/12/25 12:12:17;;;;;;;19.30;15.57;;;;;;;8.92;57.62;92483.19;5068124;28;20233;-81
2021/12/25 12:14:43;;;;;;;16.13;14.57;;;;;;;9.04;57.77;92486.22;5066986;28;20917;-81
2021/12/25 12:17:26;;;;;;;18.17;16.37;;;;;;;9.01;57.13;92445.13;5067802;28;20223;-81
2021/12/25 12:19:54;;;;;;;17.53;16.00;;;;;;;9.21;57.50;92471.00;5068358;28;20196;-81
2021/12/25 12:27:42;;;;;;;17.50;15.77;;;;;;;9.67;56.03;92479.94;5071433;28;20277;-81
2021/12/25 12:30:13;;;;;;;17.60;15.73;;;;;;;9.84;55.16;92489.97;5070103;28;20657;-80
2021/12/25 12:32:44;;;;;;;16.13;14.43;;;;;;;9.84;54.89;92493.34;5069778;28;20194;-81
2021/12/25 12:35:35;;;;;;;16.93;15.33;;;;;;;9.82;55.18;92492.84;5071858;28;20182;-82
2021/12/25 12:38:25;;;;;;;18.47;16.00;;;;;;;9.96;54.66;92493.72;5071340;28;20742;-81
2021/12/25 12:41:42;;;;;;;15.77;14.23;;;;;;;9.97;54.76;92487.47;5052169;28;20305;-80
2021/12/25 12:44:12;;;;;;;16.60;14.73;;;;;;;9.82;54.98;92483.19;5056635;28;20214;-81
2021/12/25 12:46:50;;;;;;;17.40;15.67;;;;;;;9.99;54.77;92487.97;5069645;28;20231;-82
2021/12/25 12:49:49;;;;;;;19.63;16.17;;;;;;;9.55;55.00;92424.81;5068786;28;20209;-81
2021/12/25 12:52:27;;;;;;;17.20;15.60;;;;;;;9.98;54.35;92489.00;5054569;28;20695;-80